Time;durP1;ratioP1;P1;durP2;ratioP2;P2;SDS_P1;SDS_P2;PMS_P1;PMS_P2;Temp;Humidity;BMP_temperature;BMP_pressure;BME280_temperature;BME280_humidity;BME280_pressure;Samples;Min_cycle;Max_cycle;Signal;HPM_P1;HPM_P2
2023/03/06 00:00:56;;;;;;;33.40;11.80;;;8.10;82.20;;;;;;5048264;28;20048;-55
2023/03/06 00:03:22;;;;;;;36.72;12.63;;;8.10;82.20;;;;;;5046744;28;20109;-55
2023/03/06 00:05:48;;;;;;;35.75;13.00;;;8.10;83.00;;;;;;5048076;28;20135;-55
2023/03/06 00:08:13;;;;;;;34.20;12.70;;;8.10;83.10;;;;;;5048107;28;20026;-55
2023/03/06 00:10:39;;;;;;;34.75;11.70;;;8.00;82.40;;;;;;5048035;28;20037;-55
2023/03/06 00:13:06;;;;;;;37.05;12.55;;;8.10;82.50;;;;;;5047815;28;20022;-55
2023/03/06 00:15:32;;;;;;;33.65;12.52;;;8.00;82.20;;;;;;5047809;28;20454;-55
2023/03/06 00:17:57;;;;;;;31.02;11.73;;;8.00;82.30;;;;;;5047960;28;20032;-55
2023/03/06 00:20:23;;;;;;;29.17;11.50;;;8.00;82.30;;;;;;5047915;28;20097;-55
2023/03/06 00:22:49;;;;;;;35.78;11.75;;;8.00;82.40;;;;;;5047621;28;20052;-55
2023/03/06 00:25:16;;;;;;;43.53;13.13;;;8.00;82.40;;;;;;5047777;28;20084;-55
2023/03/06 00:27:42;;;;;;;33.95;11.55;;;8.00;82.40;;;;;;5047502;28;20100;-55
2023/03/06 00:30:09;;;;;;;33.33;12.00;;;7.90;82.30;;;;;;5047667;28;20037;-55
2023/03/06 00:32:35;;;;;;;25.13;11.07;;;7.90;82.30;;;;;;5046333;28;20048;-55
2023/03/06 00:35:00;;;;;;;27.10;12.73;;;7.90;82.40;;;;;;5047675;28;20033;-55
2023/03/06 00:37:26;;;;;;;28.27;10.68;;;7.90;82.40;;;;;;5047462;28;20104;-55
2023/03/06 00:39:52;;;;;;;29.67;11.55;;;7.90;82.50;;;;;;5046238;28;20096;-55
2023/03/06 00:42:18;;;;;;;28.35;11.13;;;7.90;82.60;;;;;;5047377;28;20071;-55
2023/03/06 00:44:44;;;;;;;24.77;10.68;;;7.90;82.60;;;;;;5047389;28;20060;-55
2023/03/06 00:47:10;;;;;;;23.85;10.80;;;7.80;82.50;;;;;;5047325;28;20021;-55
2023/03/06 00:49:35;;;;;;;34.00;12.05;;;7.80;82.60;;;;;;5047121;28;20037;-55
2023/03/06 00:52:01;;;;;;;25.80;11.00;;;7.80;82.60;;;;;;5047267;28;20036;-55
2023/03/06 00:54:26;;;;;;;23.60;11.18;;;7.80;82.60;;;;;;5046945;28;20129;-54
2023/03/06 00:56:52;;;;;;;25.05;10.98;;;7.80;83.30;;;;;;5047839;28;20034;-55
2023/03/06 00:59:18;;;;;;;27.52;11.07;;;7.80;82.60;;;;;;5045812;28;20090;-55
2023/03/06 01:01:43;;;;;;;19.30;10.10;;;7.80;82.60;;;;;;5047040;28;20219;-55
2023/03/06 01:04:09;;;;;;;33.40;11.95;;;7.80;82.60;;;;;;5047075;28;20033;-55
2023/03/06 01:06:34;;;;;;;25.40;10.55;;;7.80;82.60;;;;;;5047114;28;20049;-54
2023/03/06 01:09:00;;;;;;;23.83;11.45;;;7.70;82.60;;;;;;5045572;28;20025;-55
2023/03/06 01:11:25;;;;;;;37.03;11.02;;;7.80;82.70;;;;;;5047103;28;20021;-55
2023/03/06 01:13:51;;;;;;;24.73;10.65;;;7.70;82.60;;;;;;5045091;28;20056;-56
2023/03/06 01:16:17;;;;;;;25.05;10.35;;;7.70;82.60;;;;;;5047063;28;20041;-55
2023/03/06 01:18:43;;;;;;;28.75;11.43;;;7.70;82.70;;;;;;5046652;28;20021;-55
2023/03/06 01:21:09;;;;;;;25.42;10.82;;;7.70;82.70;;;;;;5045313;28;20179;-55
2023/03/06 01:23:34;;;;;;;20.08;10.10;;;7.70;82.70;;;;;;5046442;28;20097;-55
2023/03/06 01:26:00;;;;;;;25.95;10.25;;;7.70;82.70;;;;;;5045241;28;20047;-55
2023/03/06 01:28:26;;;;;;;26.45;10.80;;;7.70;82.70;;;;;;5046610;28;20017;-55
2023/03/06 01:30:51;;;;;;;29.13;10.13;;;7.60;82.70;;;;;;5045122;28;20101;-55
2023/03/06 01:33:17;;;;;;;22.77;10.10;;;7.70;82.80;;;;;;5046508;28;20071;-55
2023/03/06 01:35:42;;;;;;;25.58;10.52;;;7.60;82.70;;;;;;5046417;28;20040;-55
2023/03/06 01:38:08;;;;;;;23.15;9.70;;;7.60;82.70;;;;;;5046266;28;20025;-55
2023/03/06 01:40:34;;;;;;;17.55;9.73;;;7.60;82.70;;;;;;5046423;28;20091;-55
2023/03/06 01:43:30;;;;;;;22.23;9.88;;;7.60;82.80;;;;;;5045103;28;20033;-55
2023/03/06 01:46:27;;;;;;;21.30;10.15;;;7.60;82.80;;;;;;5045985;28;20045;-55
2023/03/06 01:49:00;;;;;;;17.05;9.40;;;7.60;82.70;;;;;;5045885;28;20040;-55
2023/03/06 01:51:29;;;;;;;22.80;10.15;;;7.60;82.80;;;;;;5044286;28;20029;-55
2023/03/06 01:53:54;;;;;;;25.00;10.00;;;7.60;82.80;;;;;;5045922;28;20045;-55
2023/03/06 01:56:20;;;;;;;25.80;10.40;;;7.60;82.80;;;;;;5046059;28;20030;-55
2023/03/06 01:58:45;;;;;;;23.73;9.13;;;7.50;82.90;;;;;;5045976;28;20029;-55
2023/03/06 02:01:12;;;;;;;24.42;9.50;;;7.50;82.80;;;;;;5044578;28;20042;-55
2023/03/06 02:03:37;;;;;;;25.70;9.70;;;7.60;83.00;;;;;;5045662;28;20040;-55
2023/03/06 02:06:03;;;;;;;21.30;9.23;;;7.50;82.90;;;;;;5044560;28;20029;-55
2023/03/06 02:08:28;;;;;;;24.75;10.13;;;7.50;83.00;;;;;;5044347;28;20022;-55
2023/03/06 02:11:04;;;;;;;14.30;8.77;;;7.50;83.00;;;;;;5044410;28;20040;-55
2023/03/06 02:13:29;;;;;;;25.13;10.35;;;7.40;83.00;;;;;;5045875;28;20025;-55
2023/03/06 02:15:55;;;;;;;21.85;9.65;;;7.40;83.40;;;;;;5044266;28;20091;-55
2023/03/06 02:18:20;;;;;;;20.23;9.43;;;7.40;83.00;;;;;;5045575;28;20053;-55
2023/03/06 02:20:49;;;;;;;14.57;9.18;;;7.40;83.70;;;;;;5045435;28;20096;-55
2023/03/06 02:23:32;;;;;;;20.88;9.55;;;7.40;83.00;;;;;;5044178;28;20112;-55
2023/03/06 02:25:58;;;;;;;19.30;9.85;;;7.40;83.10;;;;;;5044064;28;20103;-55
2023/03/06 02:28:23;;;;;;;25.27;9.38;;;7.40;83.10;;;;;;5044163;28;20481;-55
2023/03/06 02:30:50;;;;;;;20.63;9.50;;;7.40;83.10;;;;;;5044000;28;20088;-55
2023/03/06 02:33:17;;;;;;;21.08;9.77;;;7.40;83.20;;;;;;5044084;28;20022;-55
2023/03/06 02:35:48;;;;;;;18.15;10.35;;;7.30;83.20;;;;;;5045184;28;20037;-55
2023/03/06 02:38:14;;;;;;;21.10;9.50;;;7.30;83.20;;;;;;5045148;28;20033;-55
2023/03/06 02:40:41;;;;;;;21.17;9.50;;;7.30;83.20;;;;;;5045285;28;20037;-55
2023/03/06 02:43:07;;;;;;;17.20;9.32;;;7.30;83.30;;;;;;5043797;28;20023;-55
2023/03/06 02:45:43;;;;;;;21.95;9.63;;;7.30;83.40;;;;;;5043832;28;20041;-55
2023/03/06 02:48:10;;;;;;;19.60;9.32;;;7.30;83.40;;;;;;5043971;28;20077;-55
2023/03/06 02:50:36;;;;;;;20.63;8.80;;;7.30;83.40;;;;;;5044806;28;20033;-55
2023/03/06 02:53:02;;;;;;;17.65;8.55;;;7.20;83.30;;;;;;5044924;28;20064;-55
2023/03/06 02:55:27;;;;;;;14.57;8.90;;;7.20;83.30;;;;;;5045209;28;20041;-55
2023/03/06 02:57:53;;;;;;;15.63;8.90;;;7.20;83.30;;;;;;5045104;28;20052;-55
2023/03/06 03:00:19;;;;;;;19.95;9.32;;;7.20;83.30;;;;;;5045209;28;20053;-55
2023/03/06 03:02:44;;;;;;;15.75;8.57;;;7.20;83.30;;;;;;5044262;28;20081;-55
2023/03/06 03:05:10;;;;;;;19.20;8.80;;;7.20;83.40;;;;;;5043246;28;20041;-55
2023/03/06 03:07:35;;;;;;;16.83;8.48;;;7.20;83.50;;;;;;5044851;28;20055;-55
2023/03/06 03:10:01;;;;;;;15.35;8.82;;;7.20;83.50;;;;;;5044792;28;20029;-55
2023/03/06 03:12:27;;;;;;;17.92;8.23;;;7.20;83.60;;;;;;5044746;28;20036;-55
2023/03/06 03:14:56;;;;;;;14.30;8.23;;;7.20;83.50;;;;;;5044681;28;20025;-55
2023/03/06 03:17:22;;;;;;;21.45;9.07;;;7.20;83.50;;;;;;5044937;28;20025;-55
2023/03/06 03:19:48;;;;;;;20.15;8.73;;;7.10;83.50;;;;;;5044696;28;20041;-55
2023/03/06 03:22:13;;;;;;;17.73;9.05;;;7.20;83.60;;;;;;5044433;28;20041;-55
2023/03/06 03:24:39;;;;;;;15.25;8.13;;;7.10;83.60;;;;;;5044501;28;20034;-55
2023/03/06 03:27:05;;;;;;;18.90;8.70;;;7.10;83.60;;;;;;5044810;28;20025;-55
2023/03/06 03:29:30;;;;;;;15.90;8.75;;;7.10;83.50;;;;;;5044412;28;20155;-55
2023/03/06 03:31:56;;;;;;;18.52;8.55;;;7.20;83.60;;;;;;5044678;28;20048;-55
2023/03/06 03:34:21;;;;;;;16.48;7.95;;;7.10;83.60;;;;;;5044610;28;20096;-55
2023/03/06 03:36:47;;;;;;;20.05;8.77;;;7.10;83.60;;;;;;5044524;28;20092;-55
2023/03/06 03:39:13;;;;;;;18.00;8.43;;;7.10;83.60;;;;;;5044261;28;20037;-55
2023/03/06 03:41:38;;;;;;;18.58;8.90;;;7.10;83.70;;;;;;5044437;28;20083;-55
2023/03/06 03:44:04;;;;;;;14.52;8.23;;;7.10;83.70;;;;;;5044339;28;20112;-55
2023/03/06 03:46:29;;;;;;;17.50;8.68;;;7.10;83.80;;;;;;5044491;28;20026;-55
2023/03/06 03:48:55;;;;;;;18.20;8.10;;;7.10;83.90;;;;;;5044105;28;20067;-55
2023/03/06 03:51:20;;;;;;;15.52;8.30;;;7.10;84.00;;;;;;5044350;28;20442;-55
2023/03/06 03:53:46;;;;;;;16.02;8.88;;;7.10;83.90;;;;;;5042934;28;20365;-55
2023/03/06 03:56:12;;;;;;;15.57;8.10;;;7.10;83.90;;;;;;5044385;28;20034;-55
2023/03/06 03:58:37;;;;;;;20.15;8.07;;;7.10;83.90;;;;;;5044356;28;20032;-55
2023/03/06 04:01:04;;;;;;;17.67;8.52;;;7.10;83.90;;;;;;5044413;28;20104;-56
2023/03/06 04:03:30;;;;;;;16.20;8.23;;;7.10;84.00;;;;;;5044327;28;20029;-57
2023/03/06 04:05:56;;;;;;;23.02;8.98;;;7.00;84.00;;;;;;5044389;28;20088;-57
2023/03/06 04:08:23;;;;;;;12.90;7.65;;;7.00;83.90;;;;;;5044350;28;20025;-56
2023/03/06 04:10:50;;;;;;;17.60;8.63;;;7.00;83.90;;;;;;5044350;28;20038;-57
2023/03/06 04:13:16;;;;;;;18.08;8.20;;;7.10;83.90;;;;;;5044144;28;20033;-57
2023/03/06 04:15:42;;;;;;;15.13;8.50;;;7.00;83.80;;;;;;5047174;28;20033;-57
2023/03/06 04:18:08;;;;;;;18.33;8.50;;;7.00;83.80;;;;;;5048042;28;20070;-56
2023/03/06 04:20:33;;;;;;;18.40;8.73;;;7.00;83.90;;;;;;5047972;28;20112;-57
2023/03/06 04:22:59;;;;;;;15.25;8.98;;;7.00;83.80;;;;;;5047808;28;20056;-57
2023/03/06 04:25:25;;;;;;;13.30;7.90;;;7.00;83.80;;;;;;5047760;28;20038;-57
2023/03/06 04:27:50;;;;;;;14.98;8.38;;;7.00;83.90;;;;;;5047746;28;20056;-57
2023/03/06 04:30:16;;;;;;;20.17;7.45;;;6.90;83.90;;;;;;5047474;28;20042;-56
2023/03/06 04:32:41;;;;;;;15.57;7.60;;;6.90;83.90;;;;;;5046198;28;20450;-57
2023/03/06 04:35:07;;;;;;;14.57;8.32;;;6.90;83.80;;;;;;5047305;28;20096;-57
2023/03/06 04:37:33;;;;;;;18.10;8.45;;;6.90;83.80;;;;;;5047612;28;20072;-56
2023/03/06 04:39:58;;;;;;;16.27;8.00;;;6.90;83.80;;;;;;5047503;28;20056;-57
2023/03/06 04:42:24;;;;;;;15.50;7.75;;;6.90;83.80;;;;;;5047820;28;20033;-57
2023/03/06 04:44:49;;;;;;;14.38;7.88;;;6.90;83.90;;;;;;5047557;28;20143;-56
2023/03/06 04:47:15;;;;;;;16.13;8.15;;;6.90;83.90;;;;;;5047282;28;20032;-57
2023/03/06 04:49:41;;;;;;;14.93;7.72;;;6.90;83.90;;;;;;5047076;28;20029;-57
2023/03/06 04:52:06;;;;;;;16.35;7.93;;;6.80;83.90;;;;;;5047270;28;20446;-57
2023/03/06 04:54:32;;;;;;;14.07;7.95;;;6.80;83.90;;;;;;5029230;28;20034;-56
2023/03/06 04:56:57;;;;;;;15.07;7.93;;;6.80;83.90;;;;;;5047267;28;20097;-56
2023/03/06 04:59:23;;;;;;;14.77;6.88;;;6.80;84.00;;;;;;5046971;28;20038;-56
2023/03/06 05:01:49;;;;;;;11.40;7.22;;;6.80;84.00;;;;;;5046975;28;20133;-57
2023/03/06 05:04:14;;;;;;;14.52;7.93;;;6.80;83.90;;;;;;5046954;28;20047;-57
2023/03/06 05:06:40;;;;;;;17.13;7.65;;;6.80;84.00;;;;;;5047022;28;20036;-56
2023/03/06 05:09:05;;;;;;;15.98;8.10;;;6.80;84.00;;;;;;5046828;28;20028;-56
2023/03/06 05:11:31;;;;;;;16.63;7.78;;;6.80;84.00;;;;;;5046947;28;20056;-56
2023/03/06 05:13:56;;;;;;;14.98;7.63;;;6.80;83.90;;;;;;5046606;28;20121;-57
2023/03/06 05:16:22;;;;;;;11.98;7.00;;;6.70;84.40;;;;;;5046799;28;20025;-57
2023/03/06 05:18:47;;;;;;;15.13;8.05;;;6.70;83.80;;;;;;5046904;28;20034;-57
2023/03/06 05:21:13;;;;;;;14.27;8.27;;;6.70;83.90;;;;;;5047020;28;20049;-57
2023/03/06 05:23:38;;;;;;;13.68;7.68;;;6.70;83.90;;;;;;5046591;28;20108;-56
2023/03/06 05:26:09;;;;;;;13.50;7.63;;;6.70;83.90;;;;;;5045915;28;20119;-57
2023/03/06 05:28:35;;;;;;;15.60;7.82;;;6.70;83.90;;;;;;5046675;28;20033;-57
2023/03/06 05:31:00;;;;;;;14.77;8.80;;;6.60;83.90;;;;;;5046714;28;20072;-57
2023/03/06 05:33:26;;;;;;;14.68;8.38;;;6.60;83.90;;;;;;5046304;28;20029;-57
2023/03/06 05:35:52;;;;;;;15.48;8.32;;;6.60;84.00;;;;;;5046578;28;20060;-57
2023/03/06 05:38:17;;;;;;;15.25;8.20;;;6.60;84.00;;;;;;5046419;28;20029;-57
2023/03/06 05:40:43;;;;;;;14.15;7.65;;;6.60;84.00;;;;;;5046518;28;20026;-57
2023/03/06 05:43:10;;;;;;;14.57;8.05;;;6.50;84.10;;;;;;5046081;28;20025;-57
2023/03/06 05:45:36;;;;;;;14.82;7.75;;;6.60;84.10;;;;;;5044847;28;20041;-57
2023/03/06 05:48:02;;;;;;;14.75;8.40;;;6.50;84.00;;;;;;5046637;28;20026;-57
2023/03/06 05:50:28;;;;;;;14.23;8.00;;;6.60;84.10;;;;;;5046232;28;20064;-57
2023/03/06 05:52:53;;;;;;;16.25;8.48;;;6.50;84.70;;;;;;5045077;28;20025;-57
2023/03/06 05:55:20;;;;;;;14.30;7.70;;;6.50;84.10;;;;;;5046391;28;20029;-56
2023/03/06 05:57:46;;;;;;;14.07;8.10;;;6.50;84.10;;;;;;5046145;28;20483;-56
2023/03/06 06:00:13;;;;;;;12.60;8.15;;;6.40;84.00;;;;;;5044620;28;20034;-57
2023/03/06 06:02:39;;;;;;;15.88;8.10;;;6.50;84.20;;;;;;5044327;28;20084;-57
2023/03/06 06:05:05;;;;;;;10.65;7.65;;;6.40;84.10;;;;;;5045825;28;20033;-57
2023/03/06 06:07:31;;;;;;;11.93;7.75;;;6.40;84.10;;;;;;5045761;28;20021;-57
2023/03/06 06:09:57;;;;;;;13.60;7.57;;;6.40;84.10;;;;;;5044476;28;20076;-56
2023/03/06 06:12:22;;;;;;;14.30;8.02;;;6.40;84.10;;;;;;5045700;28;20018;-57
2023/03/06 06:14:48;;;;;;;11.07;8.10;;;6.40;84.00;;;;;;5045598;28;20029;-56
2023/03/06 06:17:15;;;;;;;14.55;8.43;;;6.40;84.00;;;;;;5045835;28;20044;-57
2023/03/06 06:19:40;;;;;;;14.63;7.78;;;6.40;84.00;;;;;;5045764;28;20091;-56
2023/03/06 06:22:06;;;;;;;12.77;7.30;;;6.40;84.70;;;;;;5044549;28;20029;-56
2023/03/06 06:24:32;;;;;;;15.30;8.73;;;6.30;84.10;;;;;;5045409;28;20053;-56
2023/03/06 06:26:58;;;;;;;15.43;7.72;;;6.40;84.20;;;;;;5045607;28;20017;-57
2023/03/06 06:29:23;;;;;;;16.70;8.18;;;6.30;84.10;;;;;;5045563;28;20064;-56
2023/03/06 06:31:49;;;;;;;13.10;7.93;;;6.30;84.10;;;;;;5045534;28;20024;-57
2023/03/06 06:34:15;;;;;;;12.98;8.45;;;6.30;84.20;;;;;;5045322;28;20052;-57
2023/03/06 06:36:40;;;;;;;14.60;9.00;;;6.30;84.20;;;;;;5045381;28;20032;-56
2023/03/06 06:39:06;;;;;;;12.73;8.73;;;6.30;84.20;;;;;;5045022;28;20029;-57
2023/03/06 06:41:32;;;;;;;15.07;8.00;;;6.30;84.20;;;;;;5045204;28;20033;-57
2023/03/06 06:43:57;;;;;;;15.48;8.30;;;6.30;84.10;;;;;;5044873;28;20026;-56
2023/03/06 06:46:23;;;;;;;13.48;8.77;;;6.30;84.20;;;;;;5043895;28;20445;-57
2023/03/06 06:48:54;;;;;;;15.95;8.30;;;6.20;84.80;;;;;;5044944;28;20100;-57
2023/03/06 06:51:21;;;;;;;11.98;8.15;;;6.30;84.80;;;;;;5044849;28;20086;-57
2023/03/06 06:53:47;;;;;;;11.40;7.65;;;6.20;84.10;;;;;;5045059;28;20041;-57
2023/03/06 06:56:13;;;;;;;15.05;8.60;;;6.30;84.30;;;;;;5045004;28;20101;-57
2023/03/06 06:58:38;;;;;;;13.20;9.02;;;6.30;84.20;;;;;;5044841;28;20112;-56
2023/03/06 07:01:08;;;;;;;13.02;7.95;;;6.20;84.10;;;;;;5045031;28;20037;-57
2023/03/06 07:03:33;;;;;;;14.93;8.85;;;6.30;84.10;;;;;;5044795;28;20041;-56
2023/03/06 07:05:59;;;;;;;12.10;8.85;;;6.20;84.00;;;;;;5043404;28;20089;-56
2023/03/06 07:08:25;;;;;;;12.57;8.77;;;6.30;84.00;;;;;;5043353;28;20032;-57
2023/03/06 07:10:50;;;;;;;15.23;8.57;;;6.30;84.00;;;;;;5044959;28;20085;-56
2023/03/06 07:13:16;;;;;;;12.85;8.77;;;6.30;83.90;;;;;;5044621;28;20021;-56
2023/03/06 07:15:41;;;;;;;11.82;8.52;;;6.30;83.90;;;;;;5044751;28;20036;-57
2023/03/06 07:18:07;;;;;;;14.27;9.45;;;6.30;83.90;;;;;;5043473;28;20025;-57
2023/03/06 07:20:32;;;;;;;14.40;9.15;;;6.30;83.90;;;;;;5042800;28;20029;-57
2023/03/06 07:22:58;;;;;;;15.18;9.40;;;6.30;83.80;;;;;;5041622;28;20526;-57
2023/03/06 07:25:24;;;;;;;14.52;9.07;;;6.30;83.80;;;;;;5044403;28;20048;-57
2023/03/06 07:27:53;;;;;;;14.43;9.23;;;6.30;83.70;;;;;;5044638;28;20022;-57
2023/03/06 07:30:18;;;;;;;15.57;9.23;;;6.30;83.80;;;;;;5044376;28;20167;-57
2023/03/06 07:32:44;;;;;;;15.95;9.25;;;6.30;83.70;;;;;;5043069;28;20025;-56
2023/03/06 07:35:12;;;;;;;16.17;9.70;;;6.30;83.90;;;;;;5044458;28;20033;-57
2023/03/06 07:37:38;;;;;;;15.23;8.90;;;6.30;83.70;;;;;;5043340;28;20081;-56
2023/03/06 07:40:05;;;;;;;17.08;9.25;;;6.30;83.70;;;;;;5044498;28;20045;-57
2023/03/06 07:42:30;;;;;;;15.63;9.50;;;6.30;83.60;;;;;;5042391;28;20067;-56
2023/03/06 07:44:56;;;;;;;16.35;9.23;;;6.40;83.70;;;;;;5044169;28;20053;-56
2023/03/06 07:47:21;;;;;;;19.85;9.98;;;6.40;83.70;;;;;;5042975;28;20117;-56
2023/03/06 07:49:47;;;;;;;12.70;9.55;;;6.30;83.60;;;;;;5044596;28;20163;-55
2023/03/06 07:52:12;;;;;;;21.00;9.27;;;6.40;83.60;;;;;;5044079;28;20098;-55
2023/03/06 07:54:38;;;;;;;13.77;9.32;;;6.40;83.50;;;;;;5045145;28;20093;-55
2023/03/06 07:57:03;;;;;;;14.05;9.25;;;6.40;83.40;;;;;;5046637;28;20021;-55
2023/03/06 07:59:29;;;;;;;13.57;9.65;;;6.40;84.10;;;;;;5046558;28;20037;-55
2023/03/06 08:01:55;;;;;;;17.17;9.70;;;6.40;83.40;;;;;;5048146;28;20025;-55
2023/03/06 08:04:20;;;;;;;17.63;10.38;;;6.40;83.40;;;;;;5048024;28;20103;-54
2023/03/06 08:06:46;;;;;;;17.05;10.18;;;6.40;83.40;;;;;;5048114;28;20022;-55
2023/03/06 08:09:11;;;;;;;18.13;10.50;;;6.40;83.30;;;;;;5063197;28;20039;-55
2023/03/06 08:11:37;;;;;;;18.63;9.98;;;6.40;83.20;;;;;;5047749;28;20076;-55
2023/03/06 08:14:02;;;;;;;16.33;9.50;;;6.40;83.10;;;;;;5047767;28;20036;-55
2023/03/06 08:16:28;;;;;;;16.95;9.32;;;6.50;83.10;;;;;;5047992;28;20074;-55
2023/03/06 08:18:55;;;;;;;15.30;9.32;;;6.50;83.10;;;;;;5047898;28;20339;-55
2023/03/06 08:21:22;;;;;;;15.23;9.93;;;6.50;83.10;;;;;;5047811;28;20037;-55
2023/03/06 08:23:48;;;;;;;15.35;9.55;;;6.50;83.00;;;;;;5047522;28;20025;-55
2023/03/06 08:26:19;;;;;;;17.35;10.75;;;6.50;82.90;;;;;;5047689;28;20109;-55
2023/03/06 08:28:44;;;;;;;15.63;10.25;;;6.50;82.80;;;;;;5047754;28;20094;-55
2023/03/06 08:31:20;;;;;;;15.82;10.15;;;6.60;82.70;;;;;;5047719;28;20061;-55
2023/03/06 08:33:46;;;;;;;13.52;9.00;;;6.60;82.70;;;;;;5063052;28;20174;-55
2023/03/06 08:36:11;;;;;;;14.18;10.00;;;6.60;82.70;;;;;;5047622;28;20481;-55
2023/03/06 08:38:37;;;;;;;16.95;11.05;;;6.60;82.60;;;;;;5047373;28;20103;-55
2023/03/06 08:41:03;;;;;;;16.13;10.02;;;6.60;82.50;;;;;;5047342;28;20064;-55
2023/03/06 08:43:28;;;;;;;14.48;10.85;;;6.60;82.40;;;;;;5045682;28;20030;-55
2023/03/06 08:45:55;;;;;;;15.77;10.18;;;6.70;82.50;;;;;;5047285;28;20048;-55
2023/03/06 08:48:20;;;;;;;17.20;9.93;;;6.60;82.40;;;;;;5047484;28;20021;-55
2023/03/06 08:50:46;;;;;;;15.70;9.88;;;6.70;82.40;;;;;;5047001;28;20036;-55
2023/03/06 08:53:11;;;;;;;16.05;10.13;;;6.70;82.40;;;;;;5047233;28;20029;-55
2023/03/06 08:55:37;;;;;;;13.35;9.02;;;6.70;82.30;;;;;;5062316;28;20064;-55
2023/03/06 08:58:03;;;;;;;23.90;10.93;;;6.70;82.20;;;;;;5046899;28;20033;-55
2023/03/06 09:00:29;;;;;;;20.92;10.55;;;6.60;82.20;;;;;;5046576;28;20462;-55
2023/03/06 09:02:55;;;;;;;18.55;10.85;;;6.70;82.40;;;;;;5046407;28;20482;-55
2023/03/06 09:05:20;;;;;;;20.05;10.93;;;6.80;82.30;;;;;;5046650;28;20045;-55
2023/03/06 09:07:46;;;;;;;22.02;11.13;;;6.80;82.10;;;;;;5047029;28;20501;-55
2023/03/06 09:10:13;;;;;;;21.02;10.80;;;6.80;82.70;;;;;;5062018;28;20029;-55
2023/03/06 09:12:39;;;;;;;24.70;10.98;;;6.90;82.10;;;;;;5046653;28;20026;-55
2023/03/06 09:15:05;;;;;;;27.70;11.70;;;6.90;82.10;;;;;;5046671;28;20120;-55
2023/03/06 09:17:30;;;;;;;30.95;11.68;;;6.90;82.20;;;;;;5061747;28;20025;-55
2023/03/06 09:19:56;;;;;;;37.30;12.27;;;6.90;82.10;;;;;;5046691;28;20038;-55
2023/03/06 09:22:21;;;;;;;38.40;12.80;;;7.00;82.30;;;;;;5046639;28;20093;-55
2023/03/06 09:24:47;;;;;;;32.03;12.93;;;7.00;82.20;;;;;;5046337;28;20125;-55
2023/03/06 09:27:13;;;;;;;35.53;13.77;;;7.10;82.30;;;;;;5046364;28;20040;-55
2023/03/06 09:29:38;;;;;;;42.70;12.95;;;7.10;82.30;;;;;;5046383;28;20103;-55
2023/03/06 09:32:04;;;;;;;49.90;12.98;;;7.10;82.30;;;;;;5061702;28;20025;-55
2023/03/06 09:34:30;;;;;;;45.72;13.20;;;7.10;82.30;;;;;;5061333;28;20029;-55
2023/03/06 09:36:55;;;;;;;35.05;12.75;;;7.10;82.10;;;;;;5045918;28;20036;-55
2023/03/06 09:39:21;;;;;;;38.67;13.75;;;7.20;82.00;;;;;;5046011;28;20030;-55
2023/03/06 09:41:46;;;;;;;75.43;16.42;;;7.20;81.90;;;;;;5046067;28;20060;-55
2023/03/06 09:44:20;;;;;;;58.38;15.18;;;7.20;81.90;;;;;;5058094;28;20461;-55
2023/03/06 09:46:46;;;;;;;45.10;14.07;;;7.30;81.90;;;;;;5044841;28;20021;-55
2023/03/06 09:49:11;;;;;;;47.13;14.00;;;7.30;81.80;;;;;;5045597;28;20040;-55
2023/03/06 09:51:48;;;;;;;59.90;14.75;;;7.30;81.80;;;;;;5045874;28;20040;-54
2023/03/06 09:54:14;;;;;;;53.42;14.68;;;7.30;81.80;;;;;;5039215;28;20493;-55
2023/03/06 09:56:45;;;;;;;46.60;14.60;;;7.40;81.80;;;;;;5045510;28;20026;-55
2023/03/06 09:59:17;;;;;;;58.25;13.93;;;7.40;81.80;;;;;;5044499;28;20022;-55
2023/03/06 10:01:46;;;;;;;58.22;15.57;;;7.50;82.00;;;;;;5032077;28;20026;-55
2023/03/06 10:04:39;;;;;;;63.78;15.75;;;7.50;81.90;;;;;;5008484;28;20044;-55
2023/03/06 10:07:26;;;;;;;63.55;15.68;;;7.50;82.00;;;;;;5025805;28;20022;-55
2023/03/06 10:09:56;;;;;;;57.38;17.67;;;7.60;82.00;;;;;;5024501;28;20084;-55
2023/03/06 10:12:24;;;;;;;78.85;15.95;;;7.70;82.10;;;;;;5043222;28;20049;-55
2023/03/06 10:15:00;;;;;;;51.38;14.77;;;7.70;81.90;;;;;;5045530;28;20037;-55
2023/03/06 10:17:27;;;;;;;77.70;17.13;;;7.70;81.80;;;;;;5043873;28;20021;-55
2023/03/06 10:19:53;;;;;;;173.63;25.83;;;7.70;82.60;;;;;;5020964;28;20045;-55
2023/03/06 10:22:31;;;;;;;72.55;17.73;;;7.80;81.90;;;;;;5024098;28;20324;-55
2023/03/06 10:25:26;;;;;;;51.22;14.35;;;7.90;81.70;;;;;;5023882;28;20038;-55
2023/03/06 10:27:57;;;;;;;60.47;14.45;;;7.90;81.30;;;;;;5024867;28;20447;-55
2023/03/06 10:30:57;;;;;;;65.70;16.45;;;7.90;81.20;;;;;;5044371;28;20039;-55
2023/03/06 10:33:54;;;;;;;85.45;17.42;;;8.00;81.30;;;;;;5045177;28;20017;-56
2023/03/06 10:36:21;;;;;;;67.82;15.23;;;8.00;81.20;;;;;;5060283;28;20025;-55
2023/03/06 10:38:47;;;;;;;57.65;14.70;;;8.10;81.00;;;;;;5042075;28;20036;-55
2023/03/06 10:41:12;;;;;;;80.05;17.02;;;8.10;81.00;;;;;;5045104;28;20439;-55
2023/03/06 10:43:40;;;;;;;72.65;16.33;;;8.20;80.90;;;;;;5044563;28;20071;-55
2023/03/06 10:46:06;;;;;;;107.72;17.08;;;8.20;80.70;;;;;;5044110;28;20029;-55
2023/03/06 10:48:34;;;;;;;86.88;17.85;;;8.30;80.80;;;;;;5039739;28;20089;-55
2023/03/06 10:51:23;;;;;;;68.75;15.05;;;8.30;80.50;;;;;;5043366;28;20041;-55
2023/03/06 10:53:54;;;;;;;75.78;16.38;;;8.30;80.20;;;;;;5041889;28;20037;-55
2023/03/06 10:56:39;;;;;;;89.68;17.85;;;8.40;80.30;;;;;;5042488;28;20132;-55
2023/03/06 10:59:08;;;;;;;79.80;16.63;;;8.40;80.20;;;;;;5041596;28;20441;-55
2023/03/06 11:01:33;;;;;;;83.35;16.27;;;8.40;80.20;;;;;;5033992;28;20030;-54
2023/03/06 11:04:34;;;;;;;67.85;16.27;;;8.50;80.20;;;;;;5023109;28;20029;-55
2023/03/06 11:07:16;;;;;;;65.70;14.88;;;8.50;80.00;;;;;;5022617;28;20054;-55
2023/03/06 11:09:43;;;;;;;73.95;13.80;;;8.60;79.80;;;;;;5039102;28;20084;-55
2023/03/06 11:12:41;;;;;;;86.22;17.70;;;8.60;80.50;;;;;;5023320;28;20025;-55
2023/03/06 11:15:19;;;;;;;72.75;16.85;;;8.60;79.90;;;;;;5012499;28;20038;-55
2023/03/06 11:18:26;;;;;;;73.57;15.98;;;8.70;80.00;;;;;;5024720;28;20025;-55
2023/03/06 11:20:53;;;;;;;;;;;8.70;79.80;;;;;;5037372;28;20077;-55
2023/03/06 11:23:20;;;;;;;79.25;16.48;;;8.70;79.70;;;;;;5024384;28;19906;-55
2023/03/06 11:25:49;;;;;;;51.53;16.27;;;8.70;79.60;;;;;;5039250;28;20038;-55
2023/03/06 11:28:20;;;;;;;61.47;15.20;;;8.80;79.20;;;;;;5039944;28;20080;-55
2023/03/06 11:30:48;;;;;;;63.67;16.67;;;8.80;78.90;;;;;;5024596;28;20030;-55
2023/03/06 11:33:18;;;;;;;70.60;15.82;;;8.80;78.80;;;;;;5039638;28;20430;-54
2023/03/06 11:36:06;;;;;;;62.33;15.77;;;8.80;78.80;;;;;;5023127;28;20045;-55
2023/03/06 11:38:40;;;;;;;63.67;15.90;;;8.90;78.90;;;;;;5026780;28;20140;-55
2023/03/06 11:41:33;;;;;;;82.05;15.07;;;8.90;78.60;;;;;;5039511;28;20121;-55
2023/03/06 11:44:11;;;;;;;65.72;16.42;;;8.90;78.60;;;;;;5020342;28;20046;-55
2023/03/06 11:46:43;;;;;;;72.70;16.08;;;9.00;78.40;;;;;;5022964;28;20082;-55
2023/03/06 11:49:29;;;;;;;67.57;15.32;;;9.00;78.30;;;;;;5022822;28;20030;-55
2023/03/06 11:51:59;;;;;;;68.65;15.32;;;9.10;78.10;;;;;;5022884;28;20022;-55
2023/03/06 11:54:25;;;;;;;76.32;15.02;;;9.10;77.80;;;;;;5022906;28;20034;-55
2023/03/06 11:57:05;;;;;;;63.63;15.15;;;9.10;77.80;;;;;;5039956;28;20298;-55
2023/03/06 11:59:39;;;;;;;61.22;13.70;;;9.20;77.80;;;;;;5040781;28;20029;-55
2023/03/06 12:02:07;;;;;;;62.65;14.93;;;9.20;77.50;;;;;;5042709;28;20064;-55
2023/03/06 12:05:05;;;;;;;60.60;16.17;;;9.20;77.40;;;;;;5043221;28;20068;-55
2023/03/06 12:07:33;;;;;;;59.33;14.32;;;9.20;77.20;;;;;;5022889;28;20026;-55
2023/03/06 12:10:35;;;;;;;59.33;14.55;;;9.30;77.30;;;;;;5023185;28;20033;-55
2023/03/06 12:13:13;;;;;;;45.45;12.98;;;9.30;77.50;;;;;;5035209;28;20044;-55
2023/03/06 12:16:00;;;;;;;41.30;13.68;;;9.30;77.60;;;;;;5024240;28;20057;-55
2023/03/06 12:18:40;;;;;;;35.03;13.60;;;9.40;77.40;;;;;;5022375;28;20462;-55
2023/03/06 12:21:41;;;;;;;56.88;13.98;;;9.40;77.20;;;;;;5020402;28;20091;-55
2023/03/06 12:24:35;;;;;;;36.58;12.80;;;9.40;77.00;;;;;;5020603;28;20018;-54
2023/03/06 12:27:05;;;;;;;39.65;12.65;;;9.40;76.90;;;;;;5034525;28;20029;-55
2023/03/06 12:29:59;;;;;;;53.50;13.02;;;9.40;76.80;;;;;;5039043;28;20025;-55
2023/03/06 12:32:30;;;;;;;40.78;11.73;;;9.50;76.90;;;;;;5040413;28;20040;-55
2023/03/06 12:35:02;;;;;;;32.75;12.00;;;9.50;76.90;;;;;;5042436;28;20041;-55
2023/03/06 12:37:43;;;;;;;41.35;12.63;;;9.50;76.90;;;;;;5047258;28;20116;-55
2023/03/06 12:40:24;;;;;;;30.38;12.50;;;9.50;76.70;;;;;;5047527;28;20098;-55
2023/03/06 12:43:28;;;;;;;56.70;14.20;;;9.60;76.60;;;;;;5046091;28;20029;-55
2023/03/06 12:45:55;;;;;;;47.67;12.85;;;9.60;76.40;;;;;;5047060;28;20041;-55
2023/03/06 12:48:23;;;;;;;41.92;12.90;;;9.70;76.20;;;;;;5062435;28;20036;-55
2023/03/06 12:50:49;;;;;;;39.22;11.63;;;9.60;76.20;;;;;;5062416;28;20120;-54